North Spring Valley, Nevada Weather observations

Data are for 10 minute period ending at time listed.
 Day   Time   Solar   Ave.   Ave.  Ave.  Vector  Max.   Baro.   Total    
  of    of     Rad.   Air    Rel.  Wind   Wind   Wind  Press.  Precip.   
Year   Day            Temp.  Hum.  Speed  Dir.   Gust                    
2016   (PST)  Kw/m2    F      %     mph   deg.    mph    mb.     in.     
-------------------------------------------------------------------------
 151    0:00   0.00   57.5    48    6.6   357     9.5   829.1    0.00 
 151    0:10   0.00   56.0    53    7.5   340    12.1   829.1    0.00 
 151    0:20   0.00   55.6    54    6.0   331    10.2   829.1    0.00 
 151    0:30   0.00   55.1    54    5.6   326     9.3   829.1    0.00 
 151    0:40   0.00   54.1    56    5.5   305     7.3   829.1    0.00 
 151    0:50   0.00   52.7    59    5.3   316     8.3   829.1    0.00 
 151    1:00   0.00   51.7    62    3.3     4     6.9   829.1    0.00 
 151    1:10   0.00   51.3    62    3.8   343     6.9   829.0    0.00 
 151    1:20   0.00   50.5    64    3.7   295     5.2   829.0    0.00 
 151    1:30   0.00   48.8    68    4.6   275     6.0   828.9    0.00 
 151    1:40   0.00   48.4    70    4.0   264     5.2   828.9    0.00 
 151    1:50   0.00   48.2    70    5.1   262     6.1   828.9    0.00 
 151    2:00   0.00   48.0    71    5.1   265     6.5   828.8    0.00 
 151    2:10   0.00   48.6    70    6.0   252     6.9   828.7    0.00 
 151    2:20   0.00   49.9    66    5.8   256     6.9   828.7    0.00 
 151    2:30   0.00   48.8    67    4.8   155     7.5   828.9    0.00 
 151    2:40   0.00   47.7    68    2.9   190     4.7   829.0    0.00 
 151    2:50   0.00   47.5    69    4.2   223     5.6   829.1    0.00 
 151    3:00   0.00   45.5    76    4.7   258     5.6   829.1    0.00 
 151    3:10   0.00   45.1    79    4.1   280     4.8   829.1    0.00 
 151    3:20   0.00   43.3    83    4.2   297     5.9   829.2    0.00 
 151    3:30   0.00   44.3    81    4.2   293     4.7   829.3    0.00 
 151    3:40   0.00   44.9    78    4.5   294     5.3   829.2    0.00 
 151    3:50   0.00   43.1    82    4.7   266     5.5   829.2    0.00 
 151    4:00   0.00   42.5    85    5.1   266     6.3   829.2    0.00 
 151    4:10   0.00   42.6    86    5.6   261     6.5   829.2    0.00 
 151    4:20   0.01   43.3    85    4.5   270     5.3   829.2    0.00 
 151    4:30   0.02   43.0    85    4.5   267     5.3   829.2    0.00 
 151    4:40   0.03   43.8    84    3.3   295     4.5   829.3    0.00 
 151    4:50   0.06   44.8    82    1.2   324     2.5   829.4    0.00 
 151    5:00   0.08   46.2    78    1.9   337     4.9   829.5    0.00 
 151    5:10   0.10   48.0    77    0.6   235     2.0   829.5    0.00 
 151    5:20   0.13   51.9    67    0.5    16     2.3   829.6    0.00 
 151    5:30   0.16   54.5    62    0.6    26     1.6   829.7    0.00 
 151    5:40   0.19   54.3    64    1.7    20     3.1   829.8    0.00 
 151    5:50   0.23   54.1    65    2.1    43     3.1   829.8    0.00 
 151    6:00   0.26   54.3    64    2.4    52     4.2   829.9    0.00 
 151    6:10   0.29   55.8    60    1.7    18     2.9   829.9    0.00 
 151    6:20   0.33   57.3    57    1.4    15     2.9   829.9    0.00 
 151    6:30   0.36   58.3    55    2.3    43     3.9   830.0    0.00 
 151    6:40   0.40   58.9    52    2.4    57     4.4   830.0    0.00 
 151    6:50   0.43   59.1    52    2.1    64     3.9   830.0    0.00 
 151    7:00   0.47   59.9    50    1.7    71     3.2   830.1    0.00 
 151    7:10   0.51   61.2    48    1.2    50     3.1   830.1    0.00 
 151    7:20   0.54   62.2    47    1.5    18     2.9   830.0    0.00 
 151    7:30   0.58   63.6    45    0.8    47     3.3   830.0    0.00 
 151    7:40   0.61   63.3    44    1.1   103     3.1   829.9    0.00 
 151    7:50   0.64   64.3    44    0.8    64     2.4   829.9    0.00 
 151    8:00   0.67   64.3    44    1.4   102     4.3   829.8    0.00 
 151    8:10   0.71   65.0    44    1.5    93     4.3   829.7    0.00 
 151    8:20   0.74   65.0    45    1.7    50     3.5   829.7    0.00 
 151    8:30   0.77   66.4    42    1.1   146     2.9   829.7    0.00 
 151    8:40   0.80   66.2    43    1.6    98     4.1   829.6    0.00 
 151    8:50   0.83   66.9    43    1.7    86     3.9   829.5    0.00 
 151    9:00   0.89   67.4    41    1.5   109     3.6   829.5    0.00 
 151    9:10   0.77   67.8    36    1.1    69     3.1   829.4    0.00 
 151    9:20   0.91   69.1    36    1.2   151     3.5   829.3    0.00 
 151    9:30   0.90   69.9    34    1.7   157     5.0   829.3    0.00 
 151    9:40   0.96   70.7    36    1.0   311     3.4   829.2    0.00 
 151    9:50   0.97   71.0    35    1.8   225     5.6   829.1    0.00 
 151   10:00   0.92   71.4    32    1.1   338     5.0   829.1    0.00 
 151   10:10   0.85   70.7    32    2.3    57     6.9   828.9    0.00 
 151   10:20   1.02   70.8    32    4.1    28     6.5   828.8    0.00 
 151   10:30   1.04   70.9    31    3.4    74     7.2   828.7    0.00 
 151   10:40   1.07   71.3    33    4.4    48     9.2   828.7    0.00 
 151   10:50   1.10   72.2    32    4.0   355     9.7   828.6    0.00 
 151   11:00   1.14   72.4    30    4.2   278    11.8   828.6    0.00 
 151   11:10   1.06   72.7    30    3.0   286     6.9   828.5    0.00 
 151   11:20   0.38   70.6    32    7.2     5    16.0   828.5    0.00 
 151   11:30   0.19   68.2    37    7.2   336    12.8   828.5    0.00 
 151   11:40   0.81   70.6    37    6.6    38    12.9   828.5    0.00 
 151   11:50   1.15   72.1    34    5.2    39    11.0   828.5    0.00 
 151   12:00   1.10   72.8    32    3.9    15    10.2   828.4    0.00 
 151   12:10   1.11   73.2    32    6.0     2    19.4   828.2    0.00 
 151   12:20   1.15   72.9    32    5.8    20    10.7   828.2    0.00 
 151   12:30   1.15   73.4    29    3.6    44    10.6   828.1    0.00 
 151   12:40   0.64   72.6    34    5.7    20    11.2   828.1    0.00 
 151   12:50   0.89   72.3    34    7.8    19    16.4   828.1    0.00 
 151   13:00   0.97   73.0    35    8.4    17    14.1   828.1    0.00 
 151   13:10   1.02   72.6    32    4.6    38     9.3   828.0    0.00 
 151   13:20   0.91   73.1    32    5.4    61    10.3   827.9    0.00 
 151   13:30   0.37   71.7    33    4.9   341    10.9   827.9    0.00 
 151   13:40   0.70   71.7    35    4.2   307     8.1   827.9    0.00 
 151   13:50   1.00   74.0    32    5.7   360    11.2   827.8    0.00 
 151   14:00   0.92   74.4    28    2.5   332     7.2   827.8    0.00 
 151   14:10   0.91   75.5    29    2.2   319     5.3   827.6    0.00 
 151   14:20   0.82   75.1    30    4.2   272     6.4   827.5    0.00 
 151   14:30   0.23   72.2    32    4.8   254     8.3   827.4    0.00 
 151   14:40   0.57   71.3    34    6.3   254     8.4   827.4    0.00 
 151   14:50   0.17   71.7    32    3.8   268     6.5   827.3    0.00 
 151   15:00   0.28   71.5    31    3.3   294     6.4   827.3    0.00 
 151   15:10   0.61   73.3    30    3.1   295     8.1   827.2    0.00 
 151   15:20   0.54   75.1    25    1.8   317     6.9   827.1    0.00 
 151   15:30   0.55   75.5    25    2.2   247    12.9   827.1    0.00 
 151   15:40   0.26   72.8    28    6.7   346    11.1   827.1    0.00 
 151   15:50   0.17   71.0    30    5.3   333     8.0   827.1    0.00 
 151   16:00   0.17   70.5    32    7.4   351    11.5   827.2    0.00 
 151   16:10   0.21   70.4    33   10.7     1    19.6   827.3    0.00 
 151   16:20   0.22   69.8    33   11.8   358    18.8   827.5    0.00 
 151   16:30   0.23   69.5    33    9.9   353    15.8   827.5    0.00 
 151   16:40   0.19   68.9    34    9.2     1    14.9   827.5    0.00 
 151   16:50   0.39   70.8    33    8.1   357    12.3   827.5    0.00 
 151   17:00   0.24   71.2    32    7.9   353    12.0   827.5    0.00 
 151   17:10   0.12   69.5    33    7.7   342    11.5   827.5    0.00 
 151   17:20   0.10   68.9    34    6.2   341    10.4   827.5    0.00 
 151   17:30   0.24   70.5    33    6.6   328    11.1   827.6    0.00 
 151   17:40   0.18   69.9    35    6.6   316    10.5   827.6    0.00 
 151   17:50   0.16   69.5    36    7.0   307    11.2   827.6    0.00 
 151   18:00   0.15   69.1    38    6.0   320     9.2   827.6    0.00 
 151   18:10   0.12   68.5    39    6.1   316     8.8   827.6    0.00 
 151   18:20   0.05   65.0    46    6.3   310     8.3   827.6    0.00 
 151   18:30   0.04   63.9    47    6.7   310    10.5   827.7    0.00 
 151   18:40   0.03   63.4    47    6.7   308     9.9   827.8    0.00 
 151   18:50   0.02   64.0    44    6.7   319     9.9   827.9    0.00 
 151   19:00   0.01   63.7    44    7.4   312    12.9   828.0    0.00 
 151   19:10   0.00   62.8    45    6.3   320     8.8   828.1    0.00 
 151   19:20   0.00   63.0    43    6.4   333    11.0   828.2    0.00 
 151   19:30   0.00   63.2    43    5.4   334     8.8   828.3    0.00 
 151   19:40   0.00   61.5    46    6.2   318    11.6   828.4    0.00 
 151   19:50   0.00   61.1    47    5.0   316     7.9   828.7    0.00 
 151   20:00   0.00   59.1    51    5.1   316     9.1   828.8    0.00 
 151   20:10   0.00   59.4    50    5.5   308     7.6   829.0    0.00 
 151   20:20   0.00   58.2    53    4.9   321     6.4   829.1    0.00 
 151   20:30   0.00   57.6    54    5.5   304     6.9   829.2    0.00 
 151   20:40   0.00   58.2    53    5.6   303     7.0   829.3    0.00 
 151   20:50   0.00   57.7    54    5.9   293     6.9   829.4    0.00 
 151   21:00   0.00   58.2    52    5.9   293     7.0   829.4    0.00 
 151   21:10   0.00   58.1    52    5.6   296     7.7   829.4    0.00 

Return to North Spring Valley graphs page.


Western Regional Climate Center,wrcc@dri.edu